Latest Coastal Weather Observations for St Lawrence

IDQ60701

Issued at 4:15 am EST Tuesday 21 October 2014 (issued every 10 minutes, with the page automatically refreshed every 10 minutes)

About coastal observations | Map of coastal stations | Coastal observations for QLD | Marine services | Other Formats
Station Details ID: 033210 Name: ST LAWRENCE Lat: -22.35 Lon: 149.52 Height: 9.19 m
Data from the previous 72 hours. | See also: Recent months at St Lawrence
Date/Time
EST
Temp

°C
Wind Pressure Rain
since 9am
mm
Weather Cloud Vis
km
Sea
Height
m
Swell
Dir
 
Speed
knots
Gust
knots
hPa Trend Height
m
Period
s
Dir
21/04:00am 15.9 S 5 6 1021.1 - 0.0 - - - - - - -
21/03:30am 16.0 S 5 7 1020.9 - 0.0 - - - - - - -
21/03:00am 16.1 S 5 7 1021.1 - 0.0 - - - - - - -
21/02:30am 16.4 S 6 8 1021.1 - 0.0 - - - - - - -
21/02:00am 16.5 S 6 8 1021.3 - 0.0 - - - - - - -
21/01:30am 16.5 S 5 8 1021.6 - 0.0 - - - - - - -
21/01:00am 17.0 S 5 7 1021.9 - 0.0 - - - - - - -
21/12:30am 17.2 S 4 6 1022.3 - 0.0 - - - - - - -
21/12:00am 17.6 SE 3 4 1022.4 - 0.0 - - - - - - -
 
Date/Time
EST
Temp

°C
Wind Pressure Rain
since 9am
mm
Weather Cloud Vis
km
Sea
Height
m
Swell
Dir
 
Speed
knots
Gust
knots
hPa Trend Height
m
Period
s
Dir
20/11:30pm 18.2 SE 4 5 1022.6 - 0.0 - - - - - - -
20/11:00pm 18.7 SE 3 4 1023.0 - 0.0 - - - - - - -
20/10:30pm 19.7 ESE 3 5 1023.2 - 0.0 - - - - - - -
20/10:00pm 20.3 E 5 6 1023.3 - 0.0 - - - - - - -
20/09:30pm 20.7 E 4 6 1023.4 - 0.0 - - - - - - -
20/09:00pm 21.2 ENE 5 7 1023.2 - 0.0 - - - - - - -
20/08:30pm 21.3 E 5 10 1022.6 - 0.0 - - - - - - -
20/08:00pm 21.8 ENE 7 13 1021.9 - 0.0 - - - - - - -
20/07:30pm 22.2 ENE 7 11 1021.5 - 0.0 - - - - - - -
20/07:00pm 22.7 NE 7 11 1020.9 - 0.0 - - - - - - -
20/06:30pm 23.3 ENE 7 10 1020.5 - 0.0 - - - - - - -
20/06:00pm 23.6 NNE 8 11 1020.1 - 0.0 - - - - - - -
20/05:30pm 24.4 NE 10 14 1019.6 - 0.0 - - - - - - -
20/05:00pm 24.9 NNE 11 16 1019.3 - 0.0 - - - - - - -
20/04:30pm 25.9 NNE 11 15 1018.9 - 0.0 - - - - - - -
20/04:00pm 25.9 NNE 12 17 1018.7 - 0.0 - - - - - - -
20/03:30pm 27.1 NNE 11 15 1018.6 - 0.0 - - - - - - -
20/03:00pm 26.2 NNE 11 17 1018.5 - 0.0 - - - - - - -
20/02:30pm 27.3 NNE 11 17 1018.7 - 0.0 - - - - - - -
20/02:00pm 27.9 NNE 11 17 1018.8 - 0.0 - - - - - - -
20/01:30pm 28.3 NNE 13 19 1019.2 - 0.0 - - - - - - -
20/01:00pm 28.0 NNE 12 17 1019.8 - 0.0 - - - - - - -
20/12:30pm 28.8 ENE 8 13 1020.4 - 0.0 - - - - - - -
20/12:00pm 27.7 ENE 9 16 1021.1 - 0.0 - - - - - - -
20/11:30am 27.8 E 9 16 1021.8 - 0.0 - - - - - - -
20/11:00am 27.5 E 7 11 1022.2 - 0.0 - - - - - - -
20/10:30am 26.6 ENE 11 14 1022.8 - 0.0 - - - - - - -
20/10:00am 25.7 E 8 13 1023.2 - 0.0 - - - - - - -
20/09:30am 25.3 SE 8 14 1023.5 - 0.0 - - - - - - -
20/09:00am 23.8 SE 8 14 1023.8 - 0.0 - - - - - - -
20/08:30am 22.8 SSE 8 12 1024.1 - 0.0 - - - - - - -
20/08:00am 21.9 S 8 13 1024.2 - 0.0 - - - - - - -
20/07:30am 20.8 S 7 10 1024.2 - 0.0 - - - - - - -
20/07:00am 18.9 S 7 10 1023.9 - 0.0 - - - - - - -
20/06:30am 17.0 S 7 9 1023.6 - 0.0 - - - - - - -
20/06:00am 15.3 S 6 7 1023.2 - 0.0 - - - - - - -
20/05:30am 15.2 S 5 7 1022.9 - 0.0 - - - - - - -
20/05:00am 15.5 S 6 7 1022.5 - 0.0 - - - - - - -
20/04:30am 15.1 S 5 6 1022.1 - 0.0 - - - - - - -
20/04:00am 15.9 S 6 7 1021.8 - 0.0 - - - - - - -
20/03:30am 15.5 S 5 6 1021.7 - 0.0 - - - - - - -
20/03:00am 15.7 S 5 6 1021.7 - 0.0 - - - - - - -
20/02:30am 15.9 S 4 5 1021.7 - 0.0 - - - - - - -
20/02:00am 16.3 S 5 6 1022.0 - 0.0 - - - - - - -
20/01:30am 16.4 S 5 6 1022.3 - 0.0 - - - - - - -
20/01:00am 16.3 S 3 5 1022.6 - 0.0 - - - - - - -
20/12:30am 16.5 S 3 4 1022.8 - 0.0 - - - - - - -
20/12:00am 17.3 S 4 4 1023.2 - 0.0 - - - - - - -
 
Date/Time
EST
Temp

°C
Wind Pressure Rain
since 9am
mm
Weather Cloud Vis
km
Sea
Height
m
Swell
Dir
 
Speed
knots
Gust
knots
hPa Trend Height
m
Period
s
Dir
19/11:30pm 17.6 S 4 5 1023.5 - 0.0 - - - - - - -
19/11:00pm 18.0 S 4 5 1023.8 - 0.0 - - - - - - -
19/10:30pm 19.1 S 3 5 1023.9 - 0.0 - - - - - - -
19/10:00pm 20.6 ESE 6 9 1024.0 - 0.0 - - - - - - -
19/09:30pm 21.1 E 8 11 1023.7 - 0.0 - - - - - - -
19/09:00pm 21.4 E 9 14 1023.6 - 0.0 - - - - - - -
19/08:30pm 21.5 ESE 5 9 1023.3 - 0.0 - - - - - - -
19/08:00pm 21.9 E 7 13 1022.8 - 0.0 - - - - - - -
19/07:30pm 22.1 E 8 16 1022.4 - 0.0 - - - - - - -
19/07:00pm 22.5 E 8 15 1022.1 - 0.0 - - - - - - -
19/06:30pm 22.9 ENE 8 13 1021.7 - 0.0 - - - - - - -
19/06:00pm 23.6 ENE 9 14 1021.4 - 0.0 - - - - - - -
19/05:30pm 24.7 ENE 10 18 1021.1 - 0.0 - - - - - - -
19/05:00pm 25.5 ENE 12 17 1020.7 - 0.0 - - - - - - -
19/04:30pm 25.9 ENE 11 17 1020.5 - 0.0 - - - - - - -
19/04:00pm 26.9 ENE 12 17 1020.2 - 0.0 - - - - - - -
19/03:30pm 26.4 ENE 11 18 1020.1 - 0.0 - - - - - - -
19/03:00pm 27.4 ENE 11 17 1020.2 - 0.0 - - - - - - -
19/02:30pm 26.8 ENE 10 15 1020.3 - 0.0 - - - - - - -
19/02:00pm 27.3 ENE 12 18 1020.4 - 0.0 - - - - - - -
19/01:30pm 27.6 E 11 17 1020.8 - 0.0 - - - - - - -
19/01:00pm 26.7 E 9 14 1021.1 - 0.0 - - - - - - -
19/12:30pm 28.0 ENE 9 14 1021.3 - 0.0 - - - - - - -
19/12:00pm 27.1 ENE 9 21 1021.6 - 0.0 - - - - - - -
19/11:30am 27.5 ENE 10 16 1022.1 - 0.0 - - - - - - -
19/11:00am 26.8 E 8 15 1022.7 - 0.0 - - - - - - -
19/10:30am 26.3 ESE 10 16 1023.2 - 0.0 - - - - - - -
19/10:00am 25.8 ESE 12 17 1023.5 - 0.0 - - - - - - -
19/09:30am 24.6 ESE 12 17 1023.7 - 0.0 - - - - - - -
19/09:00am 25.1 ESE 13 19 1023.8 - 0.0 - - - - - - -
19/08:30am 23.6 SE 7 12 1023.8 - 0.0 - - - - - - -
19/08:00am 22.8 SSE 7 10 1024.0 - 0.0 - - - - - - -
19/07:30am 21.5 S 7 10 1023.8 - 0.0 - - - - - - -
19/07:00am 20.0 S 7 10 1023.6 - 0.0 - - - - - - -
19/06:30am 18.0 S 6 8 1023.3 - 0.0 - - - - - - -
19/06:00am 16.4 S 5 6 1023.0 - 0.0 - - - - - - -
19/05:30am 16.2 S 5 5 1022.8 - 0.0 - - - - - - -
19/05:00am 16.3 S 4 6 1022.6 - 0.0 - - - - - - -
19/04:30am 16.7 S 4 5 1022.4 - 0.0 - - - - - - -
19/04:00am 17.1 S 5 6 1022.2 - 0.0 - - - - - - -
19/03:30am 17.2 S 4 5 1022.0 - 0.0 - - - - - - -
19/03:00am 17.4 S 4 5 1022.0 - 0.0 - - - - - - -
19/02:30am 17.8 S 3 5 1022.1 - 0.0 - - - - - - -
19/02:00am 18.1 S 4 5 1022.1 - 0.0 - - - - - - -
19/01:30am 18.1 S 4 5 1022.3 - 0.0 - - - - - - -
19/01:00am 18.2 S 3 4 1022.5 - 0.0 - - - - - - -
19/12:30am 18.3 S 3 5 1022.8 - 0.0 - - - - - - -
19/12:00am 18.8 S 4 6 1023.0 - 0.0 - - - - - - -
 
Date/Time
EST
Temp

°C
Wind Pressure Rain
since 9am
mm
Weather Cloud Vis
km
Sea
Height
m
Swell
Dir
 
Speed
knots
Gust
knots
hPa Trend Height
m
Period
s
Dir
18/11:30pm 18.7 SSE 2 4 1023.2 - 0.0 - - - - - - -
18/11:00pm 20.1 SE 3 5 1023.4 - 0.0 - - - - - - -
18/10:30pm 21.1 ESE 5 7 1023.7 - 0.0 - - - - - - -
18/10:00pm 21.0 ESE 4 6 1023.7 - 0.0 - - - - - - -
18/09:30pm 21.4 E 5 8 1023.5 - 0.0 - - - - - - -
18/09:00pm 21.5 E 4 6 1023.3 - 0.0 - - - - - - -
18/08:30pm 21.8 ESE 4 7 1023.0 - 0.0 - - - - - - -
18/08:00pm 22.5 E 5 8 1022.5 - 0.0 - - - - - - -
18/07:30pm 22.8 E 7 13 1022.0 - 0.0 - - - - - - -
18/07:00pm 23.2 E 7 12 1021.5 - 0.0 - - - - - - -
18/06:30pm 23.6 E 9 15 1021.0 - 0.0 - - - - - - -
18/06:00pm 24.2 ENE 10 17 1020.4 - 0.0 - - - - - - -
18/05:30pm 25.0 ENE 9 15 1019.9 - 0.0 - - - - - - -
18/05:00pm 25.7 ENE 10 16 1019.2 - 0.0 - - - - - - -
18/04:30pm 26.3 NE 13 20 1018.8 - 0.0 - - - - - - -
18/04:00pm 26.4 NNE 11 16 1018.5 - 0.0 - - - - - - -
18/03:30pm 26.6 NNE 11 16 1018.7 - 0.0 - - - - - - -
18/03:00pm 27.9 NE 13 19 1018.8 - 0.0 - - - - - - -
18/02:30pm 26.6 NNE 10 16 1019.0 - 0.0 - - - - - - -
18/02:00pm 26.9 NNE 11 18 1019.3 - 0.0 - - - - - - -
18/01:30pm 27.1 NNE 11 16 1019.6 - 0.0 - - - - - - -
18/01:00pm 27.8 NE 12 18 1019.9 - 0.0 - - - - - - -
18/12:30pm 28.2 NNE 13 18 1020.2 - 0.0 - - - - - - -
18/12:00pm 27.8 NNE 13 19 1020.6 - 0.0 - - - - - - -
18/11:30am 28.3 NNE 11 15 1021.0 - 0.0 - - - - - - -
18/11:00am 27.0 ENE 8 14 1021.6 - 0.0 - - - - - - -
18/10:30am 28.0 E 8 15 1021.9 - 0.0 - - - - - - -
18/10:00am 27.1 ENE 11 12 1022.1 - 0.0 - - - - - - -
18/09:30am 26.6 E 6 12 1022.4 - 0.0 - - - - - - -
18/09:00am 25.5 ESE 7 11 1022.3 - 0.0 - - - - - - -
18/08:30am 23.9 SE 7 13 1022.3 - 0.0 - - - - - - -
18/08:00am 22.8 SSE 5 8 1022.1 - 0.0 - - - - - - -
18/07:30am 21.2 S 6 8 1021.8 - 0.0 - - - - - - -
18/07:00am 19.6 S 5 7 1021.4 - 0.0 - - - - - - -
18/06:30am 17.3 S 5 7 1021.0 - 0.0 - - - - - - -
18/06:00am 16.4 S 5 7 1020.5 - 0.0 - - - - - - -
18/05:30am 16.2 S 6 7 1020.1 - 0.0 - - - - - - -
18/05:00am 15.5 S 4 5 1019.9 - 0.0 - - - - - - -
18/04:30am 15.1 S 4 5 1019.2 - 0.0 - - - - - - -

Other Formats:

Comma delimited format used in spreadsheet applications
http://www.bom.gov.au/fwo/IDQ60701/IDQ60701.95369.axf

JavaScript Object Notation format (JSON) in row-major order
http://www.bom.gov.au/fwo/IDQ60701/IDQ60701.95369.json